Weinbiet, Germany

7:34 PM CET on February 22, 2017 (GMT +0100)
Königsbergstraße | | Change Station

Elev 620 ft 49.36 °N, 8.10 °E | Updated 2 minutes ago

Overcast
Overcast
48.0 °F
Feels Like 47 °F
N
3.7
Wind Variable Wind from NW
Gusts 14.9 mph

Today
High -- | Low -- °F
--% Chance of Precip.
Yesterday
High -- | Low -- °F
Precip. -- in
Pressure 29.86 in
Visibility 6.2 miles
Clouds Scattered Clouds 1000 ft
Overcast 2000 ft
Windchill 47 °F
Dew Point 46 °F
Humidity 91%
Rainfall 0.02 in
Snow Depth Not available.
7:23 AM 5:59 PM
Waning Crescent, 16% visible
METAR EDFM 221820Z 22011KT 180V250 9999 SCT010 OVC020 09/09 Q1011
Pressure 29.86 in
Visibility 6.2 miles
Clouds Scattered Clouds 1000 ft
Overcast 2000 ft
Windchill 47 °F
Dew Point 46 °F
Humidity 91%
Rainfall 0.02 in
Snow Depth Not available.
7:23 AM 5:59 PM
Waning Crescent, 16% visible
METAR EDFM 221820Z 22011KT 180V250 9999 SCT010 OVC020 09/09 Q1011

Get Your Daily Forecast Email!

Thanks for signing up!

Be on the lookout for a verification email in your inbox.

You'll start receiving the daily forecast at 8 AM.

×

10-Day Weather Forecast

×

Almanac

Astronomy

Feb. 22, 2017 Rise Set
Actual Time
Civil Twilight
Nautical Twilight
Astronomical Twilight
Moon
Length of Visible Light
Length of Day
Tomorrow will be .
, % of the Moon is Illuminated

Today's Extremes

Country Highs Country Lows

Community

WunderPhotos

Upload Photos

1,962,540 photos uploaded!

WunderBlog® & News

Nearby

Air Quality

  Air Quality AQ Index Pollutant
Not available.

Snow Depth

Station Depth Elevation

Earthquake Activity

City Distance Mag. Time & Date
Minimum magnitude displayed is 2.5.

Coastal Water Temperatures

Place Temperature

Stations

Nearby Weather Stations

Station Location Temp. Windchill Dew Point Humidity Wind Precip. Elev Updated Type